Flight Track Log - Related Links

Times and Time Zones

All times are in EDT time to prevent confusion due to time zone crossing. See the N143DE flight status page for this flight to view local times or setup timezone preferences in your user account.

Time Position Orientation Groundspeed Altitude Reporting Facility
EDT Latitude Longitude Course Direction KTS MPH feet Rate Location/Type
Sat 02:20:03 PM 32.7883 -79.7989 245° Southwest 207 238 5,400  Level Jacksonville Center
Sat 02:21:03 PM 32.8203 -79.8200 331° Northwest 116 133 7,500 2,000 Climbing Jacksonville Center
Sat 02:22:03 PM 32.8583 -79.8411 335° Northwest 106 122 9,400 2,050 Climbing Jacksonville Center
Sat 02:23:03 PM 32.9008 -79.8692 331° Northwest 146 168 11,600 2,000 Climbing Jacksonville Center
Sat 02:24:00 PM 33.0114 -80.1456 287° West  Level FlightAware Approximate
Sat 02:24:03 PM 32.9247 -79.9106 305° West 151 174 13,400  Level Jacksonville Center
Sat 02:25:03 PM 32.9425 -79.9594 293° West 151 174 14,900 1,450 Climbing Jacksonville Center
Sat 02:26:03 PM 32.9561 -80.0108 288° West 162 186 16,300 1,450 Climbing Jacksonville Center
Sat 02:27:03 PM 32.9742 -80.0672 291° West 174 200 17,800 1,400 Climbing Jacksonville Center
Sat 02:28:03 PM 32.9878 -80.1164 288° West 174 200 19,100 1,150 Climbing Jacksonville Center
Sat 02:29:03 PM 33.0100 -80.1728 295° West 180 207 20,100 1,000 Climbing Jacksonville Center
Sat 02:30:03 PM 33.0278 -80.2342 289° West 190 219 21,100 900 Climbing Jacksonville Center
Sat 02:31:03 PM 33.0478 -80.2931 292° West 190 219 21,900 500 Climbing Jacksonville Center
Sat 02:32:03 PM 33.0703 -80.3692 289° West 209 241 22,100 100 Climbing Jacksonville Center
Sat 02:33:03 PM 33.0883 -80.4381 287° West 229 264 22,100  Level Jacksonville Center
Sat 02:34:03 PM 33.1128 -80.5119 292° West 235 270 22,100  Level Jacksonville Center
Sat 02:35:03 PM 33.1350 -80.5881 289° West 242 278 22,100  Level Jacksonville Center
Sat 02:36:03 PM 33.1594 -80.6644 291° West 242 278 22,100  Level Jacksonville Center
Sat 02:37:03 PM 33.1817 -80.7433 289° West 242 278 22,100  Level Jacksonville Center
Sat 02:38:03 PM 33.2058 -80.8172 291° West 242 278 22,100  Level Jacksonville Center
Sat 02:39:03 PM 33.2300 -80.8961 290° West 247 284 22,100  Level Jacksonville Center
Sat 02:40:03 PM 33.2519 -80.9725 289° West 247 284 22,100  Level Jacksonville Center
Sat 02:41:03 PM 33.2761 -81.0467 291° West 247 284 22,100  Level Jacksonville Center
Sat 02:42:03 PM 33.3003 -81.1256 290° West 247 284 22,100  Level Jacksonville Center
Sat 02:43:03 PM 33.3242 -81.2022 290° West 247 284 22,100  Level Jacksonville Center
Sat 02:44:03 PM 33.3461 -81.2814 288° West 247 284 22,100  Level Jacksonville Center
Sat 02:45:03 PM 33.3744 -81.3653 292° West 247 284 22,100  Level Jacksonville Center
Sat 02:46:45 PM 33.4108 -81.4881 290° West 246 283 22,100  Level Atlanta Center
Sat 02:47:45 PM 33.4311 -81.5672 287° West 246 283 22,100  Level Atlanta Center
Sat 02:48:45 PM 33.4578 -81.6436 293° West 246 283 22,100  Level Atlanta Center
Sat 02:49:45 PM 33.4803 -81.7225 289° West 246 283 22,100  Level Atlanta Center
Sat 02:50:45 PM 33.5025 -81.7992 289° West 246 283 22,100  Level Atlanta Center
Sat 02:51:45 PM 33.5269 -81.8758 291° West 246 283 22,100  Level Atlanta Center
Sat 02:52:45 PM 33.5489 -81.9525 289° West 246 283 22,100  Level Atlanta Center
Sat 02:53:45 PM 33.5711 -82.0292 289° West 246 283 22,100  Level Atlanta Center
Sat 02:54:45 PM 33.5933 -82.1061 289° West 246 283 22,100  Level Atlanta Center
Sat 02:55:45 PM 33.6175 -82.1828 291° West 246 283 22,100 -250 Level Atlanta Center
Sat 02:56:45 PM 33.6372 -82.2597 287° West 246 283 21,600 -750 Descending Atlanta Center
Sat 02:57:45 PM 33.6658 -82.3564 290° West 258 297 20,600 -800 Descending Atlanta Center
Sat 02:58:45 PM 33.6942 -82.4383 293° West 267 307 20,000 -300 Descending Atlanta Center
Sat 02:59:45 PM 33.7181 -82.5178 290° West 261 300 20,000  Level Atlanta Center
Sat 03:00:45 PM 33.7378 -82.5950 287° West 256 295 20,000  Level Atlanta Center
Sat 03:01:45 PM 33.7678 -82.6694 296° West 256 295 20,000  Level Atlanta Center
Sat 03:02:45 PM 33.7978 -82.7439 296° West 245 282 20,000  Level Atlanta Center
Sat 03:03:45 PM 33.8236 -82.8136 294° West 245 282 20,000  Level Atlanta Center
Sat 03:04:45 PM 33.8556 -82.8906 297° West 245 282 20,000  Level Atlanta Center
Sat 03:05:45 PM 33.8814 -82.9553 296° West 245 282 20,000  Level Atlanta Center
Sat 03:06:45 PM 33.9092 -83.0300 294° West 245 282 20,000 -200 Level Atlanta Center
Sat 03:07:45 PM 33.9408 -83.1022 298° West 245 282 19,600 -650 Descending Atlanta Center
Sat 03:08:45 PM 33.9686 -83.1797 293° West 245 282 18,700 -1,150 Descending Atlanta Center
Sat 03:09:45 PM 33.9983 -83.2544 296° West 245 282 17,300 -1,300 Descending Atlanta Center
Sat 03:10:45 PM 34.0300 -83.3294 297° West 250 288 16,100 -1,100 Descending Atlanta Center
Sat 03:11:45 PM 34.0597 -83.4069 295° West 250 288 15,100 -1,000 Descending Atlanta Center
Sat 03:12:45 PM 34.0914 -83.4869 296° West 250 288 14,100 -950 Descending Atlanta Center
Sat 03:13:45 PM 34.1169 -83.5569 294° West 245 282 13,200 -950 Descending Atlanta Center
Sat 03:14:45 PM 34.1483 -83.6322 297° West 245 282 12,200 -1,050 Descending Atlanta Center
Sat 03:15:45 PM 34.1736 -83.7047 293° West 240 276 11,100 -1,000 Descending Atlanta Center
Sat 03:16:45 PM 34.2008 -83.7750 295° West 234 269 10,200 -900 Descending Atlanta Center
Sat 03:17:45 PM 34.2283 -83.8403 297° West 234 269 9,300 -1,400 Descending Atlanta Center
Sat 03:18:45 PM 34.2533 -83.9106 293° West 229 264 7,400 -1,150 Descending Atlanta Center
Sat 03:19:45 PM 34.2806 -83.9758 297° West 224 258 7,000 -200 Descending Atlanta Center
Sat 03:20:45 PM 34.3014 -84.0339 293° West 201 231 7,000  Level Atlanta Center
Sat 03:21:45 PM 34.2825 -84.0817 244° Southwest 160 184 7,000 -200 Level Atlanta Center
Sat 03:22:45 PM 34.2431 -84.1317 226° Southwest 177 204 6,600 -700 Descending Atlanta Center
Sat 03:23:45 PM 34.2075 -84.1869 232° Southwest 208 239 5,600 -850 Descending Atlanta Center
Sat 03:24:45 PM 34.1739 -84.2347 230° Southwest 214 246 4,900 -800 Descending Atlanta Center
Sat 03:25:45 PM 34.1364 -84.2897 231° Southwest 214 246 4,000 -491 Descending Atlanta Center
Sat 03:26:35 PM 34.1000 -84.3333 225° Southwest 193 222 4,000 -109 Level Atlanta TRACON
Sat 03:27:35 PM 34.0667 -84.4000 239° Southwest 198 228 3,800 -323 Descending Atlanta TRACON
Sat 03:28:45 PM 34.0442 -84.4500 242° Southwest 194 223 3,300 -633 Descending Atlanta Center
Sat 03:30:35 PM 34.0167 -84.5333 248° West 131 151 1,900 -764 Descending Atlanta TRACON
Sat 03:32:00 PM 34.0000 -84.5833 248° West  Level FlightAware Approximate
Sat 03:39:00 PM 34.0132 -84.5971 248° West  Level Estimated
Sat 03:40:00 PM 34.0132 -84.5971 248° West  Level Estimated
Sat 03:41:00 PM 34.0132 -84.5971 248° West  Level Estimated
Sat 03:42:00 PM 34.0132 -84.5971 248° West  Level Estimated
Sat 03:43:00 PM 34.0132 -84.5971 248° West  Level Estimated
Sat 03:44:00 PM 34.0132 -84.5971 248° West  Level Estimated
Sat 03:45:00 PM 34.0132 -84.5971 248° West  Level Estimated
Sat 03:46:00 PM 34.0132 -84.5971 248° West  Level Estimated
Sat 03:47:00 PM 34.0132 -84.5971 248° West  Level Estimated
Sat 03:48:00 PM 34.0132 -84.5971 248° West  Level Estimated
Sat 03:49:00 PM 34.0132 -84.5971 248° West  Level Estimated
Sat 03:50:00 PM 34.0132 -84.5971 248° West  Level Estimated
Sat 03:51:00 PM 34.0132 -84.5971 248° West  Level Estimated

Login

Don't have an account? Register now (free) for customized features, flight alerts, and more!